createdAt,value
2019-05-30T00:03:34.558Z,47.82
2019-05-30T00:07:36.335Z,48.50
2019-05-30T00:11:38.506Z,48.73
2019-05-30T00:15:40.248Z,49.28
2019-05-30T00:19:42.406Z,49.44
2019-05-30T00:23:44.578Z,49.28
2019-05-30T00:27:47.048Z,49.60
2019-05-30T00:31:48.863Z,49.81
2019-05-30T00:35:50.909Z,50.09
2019-05-30T00:39:52.655Z,50.49
2019-05-30T00:43:55.894Z,50.69
2019-05-30T00:47:58.141Z,51.23
2019-05-30T00:52:00.537Z,51.35
2019-05-30T00:56:03.204Z,51.23
2019-05-30T01:00:05.238Z,51.60
2019-05-30T01:04:07.403Z,51.59
2019-05-30T01:08:09.150Z,51.64
2019-05-30T01:12:11.793Z,51.52
2019-05-30T01:16:13.567Z,51.54
2019-05-30T01:20:16.745Z,51.95
2019-05-30T01:24:18.584Z,52.11
2019-05-30T01:28:20.716Z,52.58
2019-05-30T01:32:22.443Z,52.40
2019-05-30T01:36:24.217Z,52.47
2019-05-30T01:40:26.296Z,52.35
2019-05-30T01:44:28.026Z,52.98
2019-05-30T01:48:29.817Z,52.65
2019-05-30T01:52:31.608Z,52.41
2019-05-30T01:56:34.460Z,52.66
2019-05-30T02:00:37.625Z,52.96
2019-05-30T02:04:40.010Z,52.77
2019-05-30T02:08:42.090Z,53.10
2019-05-30T02:12:43.948Z,53.39
2019-05-30T02:16:46.164Z,53.38
2019-05-30T02:25:32.357Z,53.64
2019-05-30T02:29:34.249Z,54.38
2019-05-30T02:33:36.013Z,54.22
2019-05-30T02:37:37.832Z,54.15
2019-05-30T02:41:39.597Z,54.38
2019-05-30T02:45:41.680Z,54.58
2019-05-30T02:49:43.413Z,54.27
2019-05-30T02:53:45.433Z,54.06
2019-05-30T02:57:47.187Z,54.60
2019-05-30T03:02:01.218Z,54.51
2019-05-30T03:05:52.716Z,54.97
2019-05-30T03:09:54.679Z,54.96
2019-05-30T03:13:56.439Z,55.05
2019-05-30T03:17:58.359Z,54.75
2019-05-30T03:22:00.193Z,54.94
2019-05-30T03:26:02.605Z,54.61
2019-05-30T03:30:13.358Z,54.98
2019-05-30T03:34:18.236Z,55.07
2019-05-30T03:38:15.474Z,55.33
2019-05-30T03:42:16.760Z,54.93
2019-05-30T03:46:22.578Z,54.93
2019-05-30T03:50:28.149Z,55.65
2019-05-30T03:54:30.189Z,55.40
2019-05-30T03:59:14.973Z,55.56
2019-05-30T04:03:40.694Z,55.58
2019-05-30T04:07:49.001Z,55.38
2019-05-30T04:12:03.111Z,55.81
2019-05-30T04:16:06.795Z,55.37
2019-05-30T04:20:09.362Z,55.29
2019-05-30T04:24:14.086Z,56.12
2019-05-30T04:28:16.347Z,57.45
2019-05-30T04:32:19.377Z,58.00
2019-05-30T04:36:21.122Z,57.26
2019-05-30T04:40:22.921Z,56.93
2019-05-30T04:44:24.659Z,56.95
2019-05-30T04:48:26.505Z,56.59
2019-05-30T04:52:28.256Z,56.47
2019-05-30T04:56:30.160Z,56.57
2019-05-30T05:00:32.046Z,56.71
2019-05-30T05:04:33.926Z,55.95
2019-05-30T05:08:35.737Z,56.50
2019-05-30T05:12:38.180Z,56.65
2019-05-30T05:16:39.949Z,56.42
2019-05-30T05:20:41.690Z,56.09
2019-05-30T05:24:43.516Z,56.18
2019-05-30T05:28:45.540Z,56.54
2019-05-30T05:32:47.655Z,56.31
2019-05-30T05:36:49.399Z,56.54
2019-05-30T05:40:51.144Z,57.09
2019-05-30T05:44:52.960Z,56.23
2019-05-30T05:48:54.739Z,56.36
2019-05-30T05:52:56.887Z,55.94
2019-05-30T05:56:58.713Z,55.44
2019-05-30T06:01:00.466Z,56.14
2019-05-30T06:05:02.717Z,55.65
2019-05-30T06:09:05.184Z,55.48
2019-05-30T06:13:07.347Z,55.61
2019-05-30T06:17:09.430Z,55.53
2019-05-30T06:21:11.494Z,55.34
2019-05-30T06:25:13.777Z,55.08
2019-05-30T06:29:15.492Z,54.85
2019-05-30T06:33:18.572Z,55.01
2019-05-30T06:37:21.056Z,54.90
2019-05-30T06:41:23.533Z,55.16
2019-05-30T06:45:26.720Z,54.45
2019-05-30T06:49:29.077Z,54.77
2019-05-30T06:53:31.515Z,54.49
2019-05-30T06:57:33.347Z,54.30
2019-05-30T07:01:35.248Z,54.72
2019-05-30T07:05:37.595Z,54.39
2019-05-30T07:09:39.757Z,54.89
2019-05-30T07:13:42.343Z,55.16
2019-05-30T07:17:44.213Z,54.86
2019-05-30T07:21:45.958Z,54.88
2019-05-30T07:25:48.014Z,54.78
2019-05-30T07:29:49.823Z,54.72
2019-05-30T07:33:51.559Z,54.57
2019-05-30T07:37:53.271Z,54.06
2019-05-30T07:42:05.673Z,54.31
2019-05-30T07:45:58.832Z,54.44
2019-05-30T07:50:02.307Z,54.12
2019-05-30T07:54:04.495Z,53.92
2019-05-30T07:58:06.652Z,54.19
2019-05-30T08:02:08.396Z,53.69
2019-05-30T08:06:10.145Z,53.40
2019-05-30T08:10:12.488Z,53.37
2019-05-30T08:14:14.227Z,53.23
2019-05-30T08:18:15.939Z,53.45
2019-05-30T08:22:17.684Z,53.64
2019-05-30T08:26:19.452Z,53.94
2019-05-30T08:30:21.832Z,53.31
2019-05-30T08:34:23.979Z,53.17
2019-05-30T08:38:25.787Z,53.53
2019-05-30T08:42:28.427Z,53.70
2019-05-30T08:46:32.260Z,52.19
2019-05-30T08:50:34.271Z,52.61
2019-05-30T08:54:36.454Z,52.10
2019-05-30T08:58:38.793Z,51.91
2019-05-30T09:02:40.986Z,52.13
2019-05-30T09:06:44.186Z,51.62
2019-05-30T09:10:46.559Z,51.13
2019-05-30T09:14:48.275Z,51.44
2019-05-30T09:18:50.029Z,51.37
2019-05-30T09:22:51.839Z,51.63
2019-05-30T09:26:53.685Z,50.66
2019-05-30T09:30:55.830Z,50.56
2019-05-30T09:34:58.021Z,50.17
2019-05-30T09:39:00.115Z,49.52
2019-05-30T09:43:02.328Z,49.24
2019-05-30T09:47:04.194Z,48.63
2019-05-30T09:51:06.009Z,48.82
2019-05-30T09:55:08.468Z,49.06
2019-05-30T09:59:10.297Z,48.59
2019-05-30T10:03:12.139Z,49.39
2019-05-30T10:07:13.975Z,49.52
2019-05-30T10:11:16.256Z,49.44
2019-05-30T10:15:18.864Z,50.05
2019-05-30T10:23:22.784Z,49.74
2019-05-30T10:27:24.860Z,50.56
2019-05-30T10:31:27.031Z,50.44
2019-05-30T10:35:30.263Z,50.81
2019-05-30T10:39:32.149Z,52.36
2019-05-30T10:43:33.926Z,51.75
2019-05-30T10:47:36.161Z,51.80
2019-05-30T10:51:38.181Z,51.89
2019-05-30T10:55:40.063Z,52.17
2019-05-30T10:59:42.586Z,52.65
2019-05-30T11:03:44.527Z,52.20
2019-05-30T11:08:06.078Z,52.85
2019-05-30T11:12:06.285Z,51.29
2019-05-30T11:16:08.033Z,52.27
2019-05-30T11:20:10.762Z,52.29
2019-05-30T11:24:12.964Z,52.46
2019-05-30T11:28:14.812Z,52.74
2019-05-30T11:32:16.691Z,53.08
2019-05-30T11:36:18.412Z,52.63
2019-05-30T11:40:20.206Z,53.55
2019-05-30T11:44:21.997Z,53.58
2019-05-30T11:48:24.223Z,53.88
2019-05-30T11:52:26.041Z,54.79
2019-05-30T11:56:27.814Z,55.99
2019-05-30T12:00:29.872Z,56.67
2019-05-30T12:04:32.136Z,57.13
2019-05-30T12:08:33.928Z,57.91
2019-05-30T12:12:35.716Z,57.23
2019-05-30T12:16:38.207Z,57.87
2019-05-30T12:20:40.556Z,57.68
2019-05-30T12:24:42.782Z,58.15
2019-05-30T12:28:44.944Z,58.38
2019-05-30T12:32:46.924Z,57.29
2019-05-30T12:36:49.027Z,57.44
2019-05-30T12:40:50.781Z,56.95
2019-05-30T12:44:53.369Z,56.30
2019-05-30T12:48:57.216Z,56.38
2019-05-30T12:53:00.795Z,56.30
2019-05-30T12:57:03.885Z,55.90
2019-05-30T13:01:07.043Z,55.38
2019-05-30T13:05:10.201Z,56.03
2019-05-30T13:09:12.506Z,56.04
2019-05-30T13:13:14.932Z,56.52
2019-05-30T13:17:16.916Z,56.42
2019-05-30T13:21:19.511Z,56.74
2019-05-30T13:25:23.260Z,57.13
2019-05-30T13:29:25.182Z,57.50
2019-05-30T13:33:27.080Z,58.25
2019-05-30T13:37:28.859Z,57.95
2019-05-30T13:41:30.711Z,57.73
2019-05-30T13:45:33.182Z,58.92
2019-05-30T13:49:35.008Z,60.62
2019-05-30T13:53:36.806Z,62.13
2019-05-30T13:57:39.045Z,63.78
2019-05-30T14:01:40.787Z,64.54
2019-05-30T14:05:42.679Z,65.64
2019-05-30T14:09:44.489Z,66.46
2019-05-30T14:13:46.559Z,66.95
2019-05-30T14:17:48.406Z,66.72
2019-05-30T14:21:50.198Z,67.29
2019-05-30T14:25:52.658Z,67.85
2019-05-30T14:29:54.628Z,68.11
2019-05-30T14:33:56.568Z,68.17
2019-05-30T14:37:58.515Z,68.58
2019-05-30T14:42:00.252Z,68.57
2019-05-30T14:46:02.021Z,68.77
2019-05-30T14:50:04.638Z,68.55
2019-05-30T14:54:06.874Z,68.95
2019-05-30T14:58:11.616Z,68.69
2019-05-30T15:02:14.204Z,68.85
2019-05-30T15:06:18.397Z,68.63
2019-05-30T15:10:22.522Z,68.47
2019-05-30T15:14:24.346Z,68.69
2019-05-30T15:18:27.047Z,68.64
2019-05-30T15:22:28.911Z,68.45
2019-05-30T15:26:30.837Z,68.59
2019-05-30T15:30:33.156Z,68.36
2019-05-30T15:34:36.244Z,68.89
2019-05-30T15:38:38.959Z,68.76
2019-05-30T15:42:44.586Z,67.55
2019-05-30T15:46:46.450Z,67.14
2019-05-30T15:50:48.423Z,66.34
2019-05-30T15:54:50.467Z,66.31
2019-05-30T15:59:12.102Z,65.76
2019-05-30T16:03:14.675Z,64.98
2019-05-30T16:07:16.800Z,65.46
2019-05-30T16:11:19.636Z,65.91
2019-05-30T16:15:21.759Z,65.94
2019-05-30T16:19:26.461Z,65.47
2019-05-30T16:23:27.624Z,65.19
2019-05-30T16:27:31.239Z,65.34
2019-05-30T16:31:33.112Z,65.23
2019-05-30T16:35:35.138Z,64.98
2019-05-30T16:39:37.267Z,64.88
2019-05-30T16:43:38.984Z,65.15
2019-05-30T16:47:40.732Z,65.71
2019-05-30T16:51:42.512Z,64.76
2019-05-30T16:55:44.292Z,65.38
2019-05-30T16:59:46.039Z,64.71
2019-05-30T17:03:47.819Z,64.44
2019-05-30T17:07:49.647Z,64.86
2019-05-30T17:11:51.443Z,65.23
2019-05-30T17:15:53.899Z,65.35
2019-05-30T17:19:56.009Z,65.41
2019-05-30T17:23:57.909Z,65.52
2019-05-30T17:27:59.673Z,65.69
2019-05-30T17:32:01.461Z,65.91
2019-05-30T17:36:03.293Z,66.46
2019-05-30T17:40:07.382Z,66.58
2019-05-30T17:44:09.124Z,67.13
2019-05-30T17:48:16.526Z,66.54
2019-05-30T17:52:15.340Z,66.60
2019-05-30T17:56:17.515Z,66.52
2019-05-30T18:00:20.454Z,66.42
2019-05-30T18:04:22.492Z,65.96
2019-05-30T18:08:24.824Z,66.11
2019-05-30T18:12:27.098Z,66.07
2019-05-30T18:16:29.301Z,65.97
2019-05-30T18:20:45.579Z,65.93
2019-05-30T18:24:35.734Z,66.03
2019-05-30T18:28:38.353Z,66.47
2019-05-30T18:32:40.277Z,66.57
2019-05-30T18:40:43.333Z,66.42
2019-05-30T18:44:45.255Z,66.55
2019-05-30T18:48:47.214Z,66.67
2019-05-30T18:52:49.019Z,66.83
2019-05-30T18:56:51.267Z,66.95
2019-05-30T19:00:53.705Z,67.04
2019-05-30T19:04:56.399Z,67.25
2019-05-30T19:09:00.106Z,67.49
2019-05-30T19:13:02.597Z,67.89
2019-05-30T19:17:04.526Z,67.91
2019-05-30T19:21:07.343Z,68.06
2019-05-30T19:25:09.466Z,68.35
2019-05-30T19:29:11.796Z,68.78
2019-05-30T19:33:13.591Z,68.89
2019-05-30T19:37:15.346Z,68.83
2019-05-30T19:41:17.208Z,67.57
2019-05-30T19:45:19.802Z,68.34
2019-05-30T19:49:21.764Z,67.76
2019-05-30T19:53:23.587Z,68.45
2019-05-30T19:57:25.609Z,67.82
2019-05-30T20:01:27.501Z,67.15
2019-05-30T20:05:32.562Z,66.26
2019-05-30T20:09:34.599Z,67.44
2019-05-30T20:13:39.235Z,67.23
2019-05-30T20:17:45.219Z,67.72
2019-05-30T20:21:48.885Z,67.88
2019-05-30T20:25:51.970Z,68.05
2019-05-30T20:29:54.156Z,68.38
2019-05-30T20:33:56.592Z,68.73
2019-05-30T20:38:01.353Z,68.65
2019-05-30T20:42:18.226Z,68.55
2019-05-30T20:46:22.343Z,68.30
2019-05-30T20:50:14.864Z,68.05
2019-05-30T20:54:16.599Z,67.13
2019-05-30T20:58:19.817Z,66.74
2019-05-30T21:02:23.470Z,66.53
2019-05-30T21:06:26.470Z,66.45
2019-05-30T21:10:29.749Z,66.41
2019-05-30T21:14:33.296Z,66.34
2019-05-30T21:18:37.727Z,66.34
2019-05-30T21:22:40.627Z,65.46
2019-05-30T21:26:42.856Z,65.74
2019-05-30T21:30:47.694Z,65.32
2019-05-30T21:34:50.163Z,65.52
2019-05-30T21:38:52.416Z,65.22
2019-05-30T21:43:05.171Z,65.08
2019-05-30T21:46:58.166Z,65.59
2019-05-30T21:51:00.405Z,65.79
2019-05-30T21:55:03.737Z,66.50
2019-05-30T21:59:07.005Z,66.67
2019-05-30T22:03:09.601Z,67.01
2019-05-30T22:07:11.506Z,67.03
2019-05-30T22:11:13.767Z,67.09
2019-05-30T22:15:16.284Z,67.29
2019-05-30T22:19:18.145Z,67.18
2019-05-30T22:23:20.026Z,66.89
2019-05-30T22:27:21.806Z,67.10
2019-05-30T22:31:23.660Z,67.04
2019-05-30T22:35:25.549Z,67.22
2019-05-30T22:39:27.882Z,67.02
2019-05-30T22:43:30.068Z,67.58
2019-05-30T22:47:32.285Z,67.65
2019-05-30T22:51:34.087Z,67.52
2019-05-30T22:55:36.889Z,67.16
2019-05-30T22:59:39.256Z,67.37
2019-05-30T23:03:41.876Z,67.36
2019-05-30T23:07:43.782Z,67.40
2019-05-30T23:11:45.644Z,67.98
2019-05-30T23:15:48.161Z,68.05
2019-05-30T23:19:51.378Z,67.89
2019-05-30T23:23:55.280Z,67.87
2019-05-30T23:27:57.643Z,68.10
2019-05-30T23:31:59.570Z,68.14
2019-05-30T23:36:01.311Z,68.02
2019-05-30T23:40:03.407Z,68.09
2019-05-30T23:44:11.271Z,68.14
2019-05-30T23:48:09.109Z,67.87
2019-05-30T23:52:10.979Z,68.28
2019-05-30T23:56:12.787Z,68.04
